Time;durP1;ratioP1;P1;durP2;ratioP2;P2;SDS_P1;SDS_P2;PMS_P1;PMS_P2;Temp;Humidity;BMP_temperature;BMP_pressure;BME280_temperature;BME280_humidity;BME280_pressure;Samples;Min_cycle;Max_cycle;Signal;HPM_P1;HPM_P2
2021/10/01 00:00:07;;;;;;;0.13;0.13;;;;;;;12.57;71.55;99973.59;5036772;28;20037;-81
2021/10/01 00:02:32;;;;;;;0.20;0.20;;;;;;;12.52;71.67;99973.56;5050182;28;20403;-86
2021/10/01 00:05:00;;;;;;;0.45;0.45;;;;;;;12.47;71.66;99966.34;5041848;28;20053;-76
2021/10/01 00:07:25;;;;;;;0.13;0.13;;;;;;;12.46;71.33;99964.72;5030542;28;20457;-77
2021/10/01 00:09:51;;;;;;;0.05;0.05;;;;;;;12.44;71.45;99963.38;5030859;28;20032;-82
2021/10/01 00:12:17;;;;;;;0.00;0.00;;;;;;;12.43;71.80;99953.72;5030914;28;20030;-78
2021/10/01 00:14:43;;;;;;;0.10;0.10;;;;;;;12.40;71.50;99959.59;5030648;28;20025;-78
2021/10/01 00:17:09;;;;;;;0.00;0.00;;;;;;;12.40;71.39;99959.59;5030808;28;20174;-77
2021/10/01 00:19:37;;;;;;;0.03;0.03;;;;;;;12.44;71.46;99958.00;5041296;28;20069;-77
2021/10/01 00:22:03;;;;;;;1.00;1.00;;;;;;;12.41;71.89;99955.84;5050478;28;20106;-78
2021/10/01 00:24:34;;;;;;;0.20;0.20;;;;;;;12.44;71.60;99966.06;5049918;28;20117;-75
2021/10/01 00:26:59;;;;;;;0.00;0.00;;;;;;;12.45;71.92;99954.22;5050245;28;20031;-76
2021/10/01 00:29:25;;;;;;;0.00;0.00;;;;;;;12.44;71.51;99950.75;5041423;28;20030;-78
2021/10/01 00:31:51;;;;;;;0.00;0.00;;;;;;;12.45;71.04;99956.91;5030503;28;20032;-78
2021/10/01 00:34:16;;;;;;;0.43;0.43;;;;;;;12.44;71.09;99944.59;5034458;28;20456;-78
2021/10/01 00:36:42;;;;;;;0.00;0.00;;;;;;;12.44;71.07;99952.66;5050260;28;20079;-76
2021/10/01 00:39:08;;;;;;;0.10;0.10;;;;;;;12.42;71.11;99952.09;5049510;28;20028;-77
2021/10/01 00:41:36;;;;;;;0.10;0.10;;;;;;;12.45;70.96;99951.53;5046633;28;20427;-78
2021/10/01 00:44:03;;;;;;;0.25;0.25;;;;;;;12.44;70.88;99945.38;5030214;28;20045;-77
2021/10/01 00:46:29;;;;;;;0.10;0.10;;;;;;;12.47;70.66;99946.72;5030046;28;20112;-80
2021/10/01 00:48:55;;;;;;;0.00;0.00;;;;;;;12.52;70.83;99943.25;5030157;28;20116;-74
2021/10/01 00:51:25;;;;;;;0.25;0.25;;;;;;;12.55;70.27;99951.56;5030282;28;20029;-76
2021/10/01 00:53:51;;;;;;;0.00;0.00;;;;;;;12.54;69.37;99947.28;5030057;28;20136;-75
2021/10/01 00:56:18;;;;;;;0.10;0.10;;;;;;;12.57;68.65;99941.41;5033943;28;20032;-75
2021/10/01 00:58:44;;;;;;;0.10;0.10;;;;;;;12.57;68.44;99949.44;5049116;28;20115;-77
2021/10/01 01:03:53;;;;;;;0.00;0.00;;;;;;;12.54;68.59;99949.16;5050910;28;20028;-75
2021/10/01 01:06:31;;;;;;;0.10;0.10;;;;;;;12.48;68.32;99943.78;5051220;28;20025;-76
2021/10/01 01:09:08;;;;;;;0.00;0.00;;;;;;;12.46;67.66;99940.56;5049967;28;20025;-78
2021/10/01 01:12:04;;;;;;;1.50;0.55;;;;;;;12.44;67.79;99945.38;5031300;28;20018;-75
2021/10/01 01:14:41;;;;;;;0.00;0.00;;;;;;;12.44;67.67;99944.59;5032708;28;20022;-75
2021/10/01 01:17:13;;;;;;;0.10;0.10;;;;;;;12.38;67.38;99934.91;5035515;28;20464;-75
2021/10/01 01:19:55;;;;;;;0.05;0.05;;;;;;;12.39;67.09;99942.69;5046317;28;20162;-76
2021/10/01 01:22:20;;;;;;;0.15;0.15;;;;;;;12.37;67.29;99946.72;5053291;28;20484;-75
2021/10/01 01:25:04;;;;;;;0.60;0.60;;;;;;;12.36;67.70;99947.78;5052306;28;20024;-76
2021/10/01 01:28:02;;;;;;;0.52;0.52;;;;;;;12.34;67.05;99945.38;5034838;28;20103;-75
2021/10/01 01:30:37;;;;;;;0.15;0.15;;;;;;;12.31;67.12;99949.38;5033264;28;20171;-75
2021/10/01 01:33:05;;;;;;;0.00;0.00;;;;;;;12.25;67.32;99945.06;5034941;28;20110;-77
2021/10/01 01:35:34;;;;;;;0.55;0.30;;;;;;;12.25;67.44;99950.44;5034754;28;20056;-77
2021/10/01 01:38:16;;;;;;;0.00;0.00;;;;;;;12.23;67.36;99955.28;5035164;28;20025;-75
2021/10/01 01:40:48;;;;;;;0.20;0.20;;;;;;;12.20;67.34;99960.38;5033385;28;20391;-76
2021/10/01 01:43:14;;;;;;;0.30;0.30;;;;;;;12.16;67.18;99965.44;5034877;28;20028;-76
2021/10/01 01:45:41;;;;;;;0.40;0.40;;;;;;;12.10;67.14;99955.78;5034816;28;20030;-76
2021/10/01 01:48:08;;;;;;;0.20;0.20;;;;;;;12.10;67.33;99955.78;5033528;28;20022;-77
2021/10/01 01:50:35;;;;;;;0.45;0.45;;;;;;;12.05;67.37;99950.38;5034447;28;20029;-80
2021/10/01 01:53:02;;;;;;;0.10;0.10;;;;;;;12.00;67.67;99951.97;5033502;28;20025;-78
2021/10/01 01:55:28;;;;;;;0.30;0.30;;;;;;;11.96;67.47;99947.38;5037721;28;20025;-78
2021/10/01 01:57:54;;;;;;;0.75;0.75;;;;;;;11.89;67.53;99955.66;5053200;28;20028;-76
2021/10/01 02:00:21;;;;;;;0.10;0.10;;;;;;;11.84;67.52;99955.66;5036351;28;20022;-76
2021/10/01 02:02:49;;;;;;;0.22;0.22;;;;;;;11.80;67.55;99954.56;5032536;28;20041;-75
2021/10/01 02:05:15;;;;;;;0.10;0.10;;;;;;;11.76;67.59;99950.78;5034294;28;20393;-76
2021/10/01 02:07:42;;;;;;;0.30;0.30;;;;;;;11.71;67.64;99946.22;5053993;28;20039;-76
2021/10/01 02:10:09;;;;;;;0.03;0.03;;;;;;;11.67;67.29;99955.84;5033328;28;20028;-76
2021/10/01 02:12:35;;;;;;;0.10;0.10;;;;;;;11.62;68.05;99948.59;5033684;28;20477;-76
2021/10/01 02:15:03;;;;;;;0.10;0.10;;;;;;;11.58;68.20;99952.84;5042467;28;20291;-76
2021/10/01 02:17:31;;;;;;;;;;;;;;;11.59;67.88;99959.81;5052879;28;20032;-76
2021/10/01 02:20:00;;;;;;;0.00;0.00;;;;;;;11.51;68.34;99960.28;5050975;28;20380;-77
2021/10/01 02:22:27;;;;;;;0.47;0.47;;;;;;;11.47;68.57;99960.00;5053625;28;20456;-77
2021/10/01 02:24:53;;;;;;;0.10;0.10;;;;;;;11.42;69.15;99959.19;5053038;28;20102;-76
2021/10/01 02:27:37;;;;;;;0.10;0.10;;;;;;;11.37;68.96;99951.91;5034833;28;20477;-76
2021/10/01 02:30:15;;;;;;;1.55;0.65;;;;;;;11.30;69.65;99951.34;5044673;28;20044;-76
2021/10/01 02:33:05;;;;;;;0.20;0.20;;;;;;;11.28;69.51;99954.28;5053525;28;20495;-76
2021/10/01 02:35:31;;;;;;;0.30;0.30;;;;;;;11.26;69.86;99953.72;5053231;28;20044;-76
2021/10/01 02:37:56;;;;;;;1.10;0.90;;;;;;;11.25;69.93;99951.31;5053303;28;20472;-75
2021/10/01 02:40:22;;;;;;;0.60;0.60;;;;;;;11.25;69.47;99959.34;5052805;28;20027;-75
2021/10/01 02:42:48;;;;;;;1.75;1.65;;;;;;;11.20;70.03;99957.44;5031997;28;20032;-74
2021/10/01 02:45:14;;;;;;;0.20;0.20;;;;;;;11.18;70.17;99956.88;5033720;28;20388;-76
2021/10/01 02:47:40;;;;;;;0.28;0.28;;;;;;;11.16;70.15;99951.00;5033126;28;20052;-75
2021/10/01 02:50:09;;;;;;;0.00;0.00;;;;;;;11.16;70.17;99959.81;5033525;28;20026;-76
2021/10/01 02:53:07;;;;;;;0.22;0.22;;;;;;;11.12;70.28;99953.38;5032041;28;20022;-76
2021/10/01 02:55:58;;;;;;;0.10;0.10;;;;;;;11.13;69.68;99964.88;5032519;28;20048;-86
2021/10/01 02:58:25;;;;;;;0.08;0.08;;;;;;;11.10;69.80;99960.84;5045117;28;20022;-80
2021/10/01 03:00:52;;;;;;;0.10;0.10;;;;;;;11.08;70.18;99968.31;5031811;28;20124;-81
2021/10/01 03:03:25;;;;;;;0.20;0.20;;;;;;;11.08;70.28;99971.00;5040619;28;20028;-87
2021/10/01 03:05:53;;;;;;;0.10;0.10;;;;;;;11.08;70.42;99962.97;5051627;28;20225;-77
2021/10/01 03:08:20;;;;;;;0.00;0.00;;;;;;;11.09;70.04;99963.78;5051307;28;20459;-79
2021/10/01 03:10:48;;;;;;;0.15;0.15;;;;;;;11.08;69.84;99959.50;5049973;28;20333;-78
2021/10/01 03:13:19;;;;;;;1.40;1.35;;;;;;;11.05;70.36;99960.81;5032915;28;20025;-77
2021/10/01 03:15:48;;;;;;;0.05;0.05;;;;;;;10.98;70.40;99950.31;5032874;28;20468;-78
2021/10/01 03:18:14;;;;;;;0.00;0.00;;;;;;;11.00;70.44;99955.44;5034935;28;20090;-85
2021/10/01 03:20:41;;;;;;;0.30;0.30;;;;;;;10.98;69.97;99957.56;5050911;28;20041;-83
2021/10/01 03:23:08;;;;;;;0.00;0.00;;;;;;;10.95;70.39;99958.03;5051537;28;20048;-84
2021/10/01 03:25:34;;;;;;;0.10;0.10;;;;;;;10.93;70.60;99960.97;5039230;28;20037;-84
2021/10/01 03:28:00;;;;;;;0.00;0.00;;;;;;;10.90;70.11;99958.84;5049641;28;20031;-86
2021/10/01 03:30:25;;;;;;;0.75;0.55;;;;;;;10.86;70.10;99953.19;5051483;28;20112;-84
2021/10/01 03:32:51;;;;;;;0.20;0.20;;;;;;;10.83;70.18;99953.69;5050867;28;20043;-84
2021/10/01 03:35:16;;;;;;;0.10;0.10;;;;;;;10.80;70.83;99946.19;5051327;28;20495;-83
2021/10/01 03:37:45;;;;;;;0.10;0.10;;;;;;;10.80;70.64;99953.38;5050237;28;20051;-83
2021/10/01 03:40:12;;;;;;;0.00;0.00;;;;;;;10.73;70.33;99942.91;5051201;28;20576;-82
2021/10/01 03:42:40;;;;;;;0.20;0.20;;;;;;;10.70;70.13;99944.19;5039808;28;20021;-85
2021/10/01 03:45:08;;;;;;;0.00;0.00;;;;;;;10.69;70.31;99945.28;5049281;28;20024;-85
2021/10/01 03:47:34;;;;;;;0.10;0.10;;;;;;;10.67;70.64;99954.63;5050550;28;20093;-78
2021/10/01 03:50:00;;;;;;;0.35;0.35;;;;;;;10.65;70.50;99952.19;5048911;28;20551;-80
2021/10/01 03:52:25;;;;;;;0.00;0.00;;;;;;;10.63;70.37;99951.66;5038478;28;20029;-81
2021/10/01 03:54:51;;;;;;;0.10;0.10;;;;;;;10.63;70.47;99959.69;5050007;28;20392;-80
2021/10/01 03:57:17;;;;;;;0.00;0.00;;;;;;;10.60;70.31;99954.81;5050256;28;20500;-79
2021/10/01 03:59:43;;;;;;;0.50;0.50;;;;;;;10.61;69.48;99959.13;5030619;28;20021;-79
2021/10/01 04:02:09;;;;;;;0.10;0.10;;;;;;;10.62;69.18;99955.38;5032883;28;20032;-79
2021/10/01 04:04:34;;;;;;;1.55;1.45;;;;;;;10.61;68.47;99947.59;5050453;28;20047;-77
2021/10/01 04:07:01;;;;;;;0.30;0.30;;;;;;;10.63;67.80;99962.34;5051641;28;20078;-82
2021/10/01 04:09:27;;;;;;;0.10;0.10;;;;;;;10.63;68.05;99957.00;5048150;28;20357;-77
2021/10/01 04:11:54;;;;;;;0.00;0.00;;;;;;;10.65;67.71;99962.09;5050364;28;20594;-78
2021/10/01 04:14:23;;;;;;;0.00;0.00;;;;;;;10.67;67.41;99958.09;5049818;28;20027;-83
2021/10/01 04:16:50;;;;;;;0.20;0.20;;;;;;;10.68;67.93;99962.41;5039489;28;20029;-77
2021/10/01 04:19:16;;;;;;;0.13;0.13;;;;;;;10.71;67.54;99966.44;5033377;28;20053;-80
2021/10/01 04:21:43;;;;;;;0.30;0.30;;;;;;;10.71;67.21;99966.44;5039609;28;20438;-77
2021/10/01 04:24:08;;;;;;;0.30;0.30;;;;;;;10.74;67.52;99968.56;5042749;28;20035;-79
2021/10/01 04:26:35;;;;;;;0.00;0.00;;;;;;;10.73;67.91;99969.66;5018609;28;20403;-80
2021/10/01 04:29:00;;;;;;;0.10;0.10;;;;;;;10.80;67.34;99974.78;5037304;28;20025;-80
2021/10/01 04:31:26;;;;;;;0.05;0.05;;;;;;;10.82;68.18;99970.78;5050285;28;20079;-80
2021/10/01 04:33:51;;;;;;;0.08;0.08;;;;;;;10.88;67.57;99980.47;5051642;28;20103;-80
2021/10/01 04:36:18;;;;;;;0.00;0.00;;;;;;;10.89;67.61;99968.72;5050150;28;20020;-80
2021/10/01 04:38:44;;;;;;;0.10;0.10;;;;;;;10.90;67.50;99969.53;5050094;28;20027;-80
2021/10/01 04:41:09;;;;;;;0.20;0.20;;;;;;;10.91;67.96;99975.69;5050053;28;20449;-80
2021/10/01 04:43:36;;;;;;;0.17;0.17;;;;;;;10.92;67.30;99977.31;5049995;28;20390;-80
2021/10/01 04:46:01;;;;;;;0.00;0.00;;;;;;;10.96;67.44;99979.22;5049771;28;20037;-80
2021/10/01 04:48:27;;;;;;;0.10;0.10;;;;;;;11.08;67.33;99975.56;5049918;28;20031;-79
2021/10/01 04:50:52;;;;;;;0.55;0.55;;;;;;;11.20;67.62;99987.72;5049552;28;20024;-80
2021/10/01 04:53:17;;;;;;;0.03;0.03;;;;;;;11.34;67.81;99980.03;5049856;28;20439;-80
2021/10/01 04:55:46;;;;;;;0.10;0.10;;;;;;;11.55;67.34;99988.19;5049616;28;20395;-80
2021/10/01 04:58:11;;;;;;;;;;;;;;;11.69;66.86;99989.34;5051917;28;20529;-80
2021/10/01 05:00:37;;;;;;;0.03;0.03;;;;;;;11.77;66.45;99984.56;5049870;28;19905;-80
2021/10/01 05:03:02;;;;;;;1.55;0.90;;;;;;;11.91;66.07;99985.69;5049655;28;20601;-80
2021/10/01 05:05:28;;;;;;;0.30;0.30;;;;;;;12.07;66.09;99988.47;5050260;28;20028;-80
2021/10/01 05:07:53;;;;;;;2.20;0.98;;;;;;;12.20;65.64;99987.97;5049798;28;20059;-80
2021/10/01 05:10:20;;;;;;;0.00;0.00;;;;;;;12.32;65.29;99995.78;5049852;28;20495;-80
2021/10/01 05:12:45;;;;;;;0.25;0.25;;;;;;;12.46;65.27;100001.44;5049468;28;20460;-81
2021/10/01 05:15:12;;;;;;;0.15;0.15;;;;;;;12.57;64.92;99988.88;5049886;28;20027;-79
2021/10/01 05:17:39;;;;;;;0.25;0.25;;;;;;;12.74;64.71;100004.72;5049788;28;20025;-81
2021/10/01 05:20:06;;;;;;;0.20;0.20;;;;;;;12.90;64.22;100002.88;5051389;28;20037;-81
2021/10/01 05:22:32;;;;;;;0.10;0.10;;;;;;;13.04;63.80;100003.16;5051276;28;20041;-80
2021/10/01 05:24:58;;;;;;;4.03;1.20;;;;;;;13.22;63.58;100005.28;5049513;28;20395;-81
2021/10/01 05:27:23;;;;;;;0.08;0.08;;;;;;;13.38;62.99;100006.09;5049348;28;20035;-79
2021/10/01 05:29:49;;;;;;;0.20;0.20;;;;;;;13.57;62.17;100010.91;5049584;28;20029;-79
2021/10/01 05:32:14;;;;;;;0.45;0.38;;;;;;;13.74;61.89;100013.28;5049716;28;20020;-79
2021/10/01 05:34:39;;;;;;;0.20;0.20;;;;;;;13.88;61.11;100013.53;5049642;28;20051;-80
2021/10/01 05:37:05;;;;;;;0.55;0.55;;;;;;;14.07;61.20;100009.16;5049971;28;20021;-81
2021/10/01 05:39:31;;;;;;;0.10;0.10;;;;;;;14.23;60.58;100007.19;5049773;28;20036;-78
2021/10/01 05:41:57;;;;;;;0.25;0.25;;;;;;;14.35;59.96;100016.81;5049362;28;20021;-79
2021/10/01 05:44:23;;;;;;;0.10;0.10;;;;;;;14.44;59.27;100009.78;5049605;28;20027;-79
2021/10/01 05:46:48;;;;;;;0.65;0.65;;;;;;;14.55;58.80;100016.72;5049257;28;20021;-80
2021/10/01 05:49:22;;;;;;;0.40;0.40;;;;;;;14.58;57.49;100007.28;5050033;28;20021;-79
2021/10/01 05:51:52;;;;;;;0.10;0.10;;;;;;;14.59;57.52;100022.34;5049290;28;20051;-79
2021/10/01 05:54:22;;;;;;;0.00;0.00;;;;;;;14.56;56.95;100014.81;5049704;28;20456;-79
2021/10/01 05:56:53;;;;;;;0.00;0.00;;;;;;;14.56;56.29;100017.50;5049567;28;20025;-80
2021/10/01 05:59:20;;;;;;;1.42;1.27;;;;;;;14.49;54.58;100020.50;5049276;28;20021;-79
2021/10/01 06:01:45;;;;;;;0.10;0.10;;;;;;;14.49;54.83;100017.00;5052688;28;20021;-79
2021/10/01 06:04:11;;;;;;;0.63;0.63;;;;;;;14.44;55.04;100017.84;5053259;28;20029;-80
2021/10/01 06:06:37;;;;;;;1.10;0.55;;;;;;;14.41;55.45;100021.91;5053453;28;20025;-79
2021/10/01 06:09:07;;;;;;;0.52;0.52;;;;;;;14.36;55.23;100013.84;5053183;28;20017;-79
2021/10/01 06:11:32;;;;;;;0.05;0.05;;;;;;;14.34;55.01;100024.09;5053137;28;20013;-79
2021/10/01 06:13:58;;;;;;;0.30;0.30;;;;;;;14.28;53.76;100022.50;5053285;28;20039;-79
2021/10/01 06:16:23;;;;;;;0.40;0.40;;;;;;;14.23;53.19;100025.22;5052803;28;20021;-79
2021/10/01 06:18:49;;;;;;;0.30;0.30;;;;;;;14.21;53.33;100036.25;5052566;28;20162;-79
2021/10/01 06:21:15;;;;;;;0.50;0.50;;;;;;;14.15;54.01;100023.91;5052831;28;20432;-79
2021/10/01 06:23:40;;;;;;;0.25;0.25;;;;;;;14.19;54.09;100029.53;5053179;28;20025;-79
2021/10/01 06:26:06;;;;;;;0.10;0.10;;;;;;;14.23;53.52;100020.66;5052712;28;20447;-79
2021/10/01 06:28:32;;;;;;;0.10;0.10;;;;;;;14.22;52.60;100023.59;5053184;28;20090;-79
2021/10/01 06:30:58;;;;;;;0.38;0.38;;;;;;;14.22;52.09;100028.97;5052514;28;20025;-80
2021/10/01 06:33:25;;;;;;;0.10;0.10;;;;;;;14.30;52.56;100023.03;5052862;28;20029;-79
2021/10/01 06:35:51;;;;;;;0.03;0.03;;;;;;;14.29;52.01;100032.16;5052524;28;20456;-79
2021/10/01 06:38:17;;;;;;;0.25;0.25;;;;;;;14.27;52.09;100041.59;5052651;28;20132;-79
2021/10/01 06:40:42;;;;;;;0.10;0.10;;;;;;;14.22;52.12;100035.19;5052578;28;20107;-79
2021/10/01 06:43:10;;;;;;;0.30;0.30;;;;;;;14.22;51.77;100035.19;5052362;28;20028;-80
2021/10/01 06:45:36;;;;;;;0.05;0.05;;;;;;;14.27;51.59;100050.50;5052629;28;20029;-79
2021/10/01 07:20:46;;;;;;;4.68;0.85;;;;;;;14.53;51.62;100045.00;5053728;28;20036;-79
2021/10/01 08:20:00;;;;;;;0.00;0.00;;;;;;;15.55;44.35;100025.66;5051875;28;20051;-79
2021/10/01 08:22:25;;;;;;;0.10;0.10;;;;;;;15.50;44.40;100023.81;5050170;28;20383;-79
2021/10/01 08:24:51;;;;;;;0.50;0.50;;;;;;;15.49;44.03;100014.94;5050164;28;20102;-79
2021/10/01 08:27:16;;;;;;;1.48;1.38;;;;;;;15.58;44.04;100009.72;5050573;28;20028;-79
2021/10/01 08:29:42;;;;;;;0.20;0.20;;;;;;;15.72;44.46;100007.16;5050456;28;20025;-78
2021/10/01 08:32:07;;;;;;;0.20;0.20;;;;;;;15.87;43.89;100002.69;5050204;28;20017;-79
2021/10/01 08:34:38;;;;;;;0.03;0.03;;;;;;;16.01;43.19;100011.69;5050347;28;20084;-80
2021/10/01 08:37:04;;;;;;;2.13;0.25;;;;;;;15.97;42.81;100007.97;5050038;28;20027;-79
2021/10/01 08:39:30;;;;;;;0.08;0.08;;;;;;;16.03;42.73;100020.31;5050288;28;20029;-79
2021/10/01 08:41:57;;;;;;;0.10;0.10;;;;;;;16.03;42.76;100033.78;5049928;28;20098;-79
2021/10/01 08:44:27;;;;;;;0.20;0.20;;;;;;;15.89;43.01;100020.19;5050234;28;20456;-79
2021/10/01 08:46:54;;;;;;;0.10;0.10;;;;;;;15.88;43.31;100004.28;5050091;28;20621;-80
2021/10/01 08:49:21;;;;;;;0.45;0.15;;;;;;;15.73;42.88;100011.44;5050330;28;20074;-78
2021/10/01 08:51:47;;;;;;;0.10;0.10;;;;;;;15.74;42.63;100020.34;5049988;28;20045;-78
2021/10/01 08:54:13;;;;;;;0.25;0.25;;;;;;;15.59;42.96;100003.22;5049923;28;20499;-78
2021/10/01 08:56:38;;;;;;;0.03;0.03;;;;;;;15.58;43.33;99998.13;5049972;28;20020;-78
2021/10/01 08:59:04;;;;;;;0.00;0.00;;;;;;;15.56;43.10;100019.16;5049684;28;20056;-78
2021/10/01 09:01:29;;;;;;;0.20;0.20;;;;;;;15.42;43.36;100013.66;5049265;28;20016;-78
2021/10/01 09:03:55;;;;;;;0.00;0.00;;;;;;;15.43;43.72;99997.19;5049409;28;20025;-78
2021/10/01 09:06:20;;;;;;;0.10;0.10;;;;;;;15.47;43.98;100000.13;5051186;28;20085;-78
2021/10/01 09:08:52;;;;;;;0.38;0.38;;;;;;;15.56;44.16;100003.00;5049912;28;20025;-78
2021/10/01 09:11:45;;;;;;;0.40;0.40;;;;;;;15.59;44.08;99994.34;5049665;28;20032;-78
2021/10/01 09:14:13;;;;;;;0.55;0.55;;;;;;;15.67;43.80;100001.78;5049314;28;20494;-78
2021/10/01 09:16:39;;;;;;;0.00;0.00;;;;;;;15.73;43.65;100007.94;5050011;28;20060;-78
2021/10/01 09:19:06;;;;;;;0.10;0.10;;;;;;;15.71;43.80;99994.75;5049438;28;20287;-78
2021/10/01 09:21:41;;;;;;;0.20;0.20;;;;;;;15.72;43.54;100011.72;5050014;28;20017;-78
2021/10/01 09:24:10;;;;;;;0.32;0.32;;;;;;;15.66;43.13;100016.34;5049550;28;20028;-78
2021/10/01 09:26:44;;;;;;;0.10;0.10;;;;;;;15.74;42.90;99999.56;5049911;28;20025;-78
2021/10/01 09:29:15;;;;;;;0.10;0.10;;;;;;;15.87;42.97;100010.78;5049622;28;20114;-78
2021/10/01 09:31:43;;;;;;;0.10;0.10;;;;;;;15.90;43.15;100000.22;5050107;28;20431;-78
2021/10/01 09:34:14;;;;;;;2.83;1.65;;;;;;;15.97;43.42;99995.28;5049526;28;20395;-78
2021/10/01 09:36:41;;;;;;;0.10;0.10;;;;;;;16.01;43.47;100000.91;5053312;28;20086;-78
2021/10/01 09:39:08;;;;;;;0.10;0.10;;;;;;;16.11;43.08;99994.56;5053515;28;20025;-78
2021/10/01 09:41:37;;;;;;;0.00;0.00;;;;;;;16.24;42.86;99985.75;5054858;28;20447;-78
2021/10/01 09:44:09;;;;;;;0.00;0.00;;;;;;;16.39;41.98;99997.44;5053442;28;20079;-78
2021/10/01 09:46:44;;;;;;;0.10;0.10;;;;;;;16.50;42.26;99996.19;5053440;28;20021;-78
2021/10/01 09:49:14;;;;;;;0.00;0.00;;;;;;;16.57;41.88;99980.44;5053432;28;20029;-78
2021/10/01 09:51:46;;;;;;;0.03;0.03;;;;;;;16.69;41.79;99985.41;5053449;28;20048;-77
2021/10/01 09:54:13;;;;;;;0.10;0.10;;;;;;;16.72;41.49;99992.94;5052994;28;20075;-78
2021/10/01 09:56:40;;;;;;;0.20;0.20;;;;;;;16.79;42.28;99973.63;5053214;28;20025;-77
2021/10/01 09:59:08;;;;;;;0.32;0.32;;;;;;;16.84;41.20;99973.53;5052637;28;20025;-79
2021/10/01 10:01:36;;;;;;;0.50;0.50;;;;;;;16.87;41.11;99974.84;5053158;28;20120;-78
2021/10/01 10:04:13;;;;;;;0.55;0.55;;;;;;;16.80;40.29;99983.34;5052754;28;20039;-79
2021/10/01 10:06:43;;;;;;;0.20;0.20;;;;;;;16.84;40.71;99986.25;5053175;28;20028;-77
2021/10/01 10:09:09;;;;;;;0.13;0.13;;;;;;;16.78;40.92;99988.22;5054130;28;20108;-78
2021/10/01 10:11:39;;;;;;;0.00;0.00;;;;;;;16.71;40.07;100006.69;5053172;28;20023;-79
2021/10/01 10:14:11;;;;;;;0.10;0.10;;;;;;;16.68;40.51;99974.91;5052688;28;20021;-78
2021/10/01 10:16:37;;;;;;;0.20;0.20;;;;;;;16.63;40.16;99971.16;5054372;28;20027;-78
2021/10/01 10:19:10;;;;;;;0.10;0.10;;;;;;;16.53;39.68;99975.91;5052596;28;20045;-78
2021/10/01 10:21:36;;;;;;;1.15;1.02;;;;;;;16.55;40.59;99971.84;5052905;28;20125;-80
2021/10/01 10:24:03;;;;;;;0.85;0.85;;;;;;;16.69;40.92;99965.69;5052390;28;20174;-78
2021/10/01 10:26:28;;;;;;;0.10;0.10;;;;;;;16.80;40.42;99957.13;5053842;28;20025;-78
2021/10/01 10:28:58;;;;;;;0.00;0.00;;;;;;;16.89;39.23;99967.25;5052450;28;20385;-78
2021/10/01 10:31:29;;;;;;;0.10;0.10;;;;;;;16.94;39.13;99946.41;5052873;28;20104;-78
2021/10/01 10:33:57;;;;;;;0.35;0.35;;;;;;;17.06;39.89;99942.41;5052736;28;20029;-78
2021/10/01 10:36:31;;;;;;;1.00;0.45;;;;;;;17.11;39.82;99950.44;5052411;28;20397;-78
2021/10/01 10:39:19;;;;;;;0.15;0.15;;;;;;;17.15;39.17;99959.56;5052599;28;20036;-78
2021/10/01 10:42:06;;;;;;;0.05;0.05;;;;;;;17.13;38.54;99953.66;5052870;28;20037;-78
2021/10/01 10:45:02;;;;;;;0.20;0.20;;;;;;;17.07;38.41;99947.50;5051914;28;20132;-78
2021/10/01 10:47:48;;;;;;;0.10;0.10;;;;;;;17.06;39.44;99935.09;5053408;28;20093;-78
2021/10/01 10:50:55;;;;;;;0.10;0.10;;;;;;;17.08;39.10;99934.81;5052018;28;20021;-78
2021/10/01 10:53:28;;;;;;;0.25;0.25;;;;;;;17.12;38.89;99939.34;5033995;28;20025;-78
2021/10/01 10:55:59;;;;;;;0.10;0.10;;;;;;;17.17;39.19;99935.72;5034022;28;20427;-80
2021/10/01 10:58:28;;;;;;;0.30;0.30;;;;;;;17.12;38.47;99946.63;5042677;28;20039;-79
2021/10/01 11:01:02;;;;;;;0.10;0.10;;;;;;;17.11;38.63;99945.03;5051914;28;20045;-79
2021/10/01 11:03:29;;;;;;;0.20;0.20;;;;;;;17.11;38.80;99931.50;5051848;28;20494;-79
2021/10/01 11:06:10;;;;;;;0.08;0.08;;;;;;;17.06;38.72;99935.09;5051754;28;20521;-79
2021/10/01 11:08:46;;;;;;;0.10;0.10;;;;;;;17.08;38.94;99938.31;5051979;28;20025;-79
2021/10/01 11:11:32;;;;;;;0.10;0.10;;;;;;;17.11;39.22;99926.91;5051440;28;20031;-79
2021/10/01 11:14:12;;;;;;;0.10;0.10;;;;;;;17.23;39.21;99922.94;5051730;28;20025;-79
2021/10/01 11:16:38;;;;;;;0.50;0.50;;;;;;;17.29;37.92;99927.91;5051620;28;20132;-79
2021/10/01 11:19:05;;;;;;;0.10;0.10;;;;;;;17.30;37.77;99923.34;5051157;28;20048;-79
2021/10/01 11:21:42;;;;;;;0.10;0.10;;;;;;;17.29;37.81;99935.25;5051744;28;20028;-79
2021/10/01 11:24:17;;;;;;;0.20;0.20;;;;;;;17.34;37.99;99908.09;5051170;28;20120;-79
2021/10/01 11:26:45;;;;;;;0.10;0.10;;;;;;;17.35;37.89;99915.13;5051581;28;20510;-79
2021/10/01 11:29:21;;;;;;;;;;;;;;;17.31;37.20;99908.72;5051403;28;20097;-79
2021/10/01 11:31:47;;;;;;;0.10;0.10;;;;;;;17.26;37.09;99906.91;5051539;28;20368;-80
2021/10/01 11:34:12;;;;;;;0.10;0.10;;;;;;;17.25;36.70;99893.69;5051291;28;20040;-79
2021/10/01 11:36:39;;;;;;;0.00;0.00;;;;;;;17.17;36.41;99900.59;5051447;28;20423;-79
2021/10/01 11:39:10;;;;;;;0.50;0.50;;;;;;;17.18;36.77;99896.78;5051401;28;20065;-79
2021/10/01 11:41:44;;;;;;;0.38;0.38;;;;;;;17.18;36.83;99909.50;5052495;28;20032;-80
2021/10/01 11:44:12;;;;;;;0.28;0.20;;;;;;;17.18;36.52;99904.09;5051064;28;20013;-79
2021/10/01 11:46:42;;;;;;;0.10;0.10;;;;;;;17.19;36.84;99908.41;5051517;28;20029;-79
2021/10/01 11:49:24;;;;;;;0.38;0.38;;;;;;;17.10;37.10;99902.88;5051131;28;20094;-79
2021/10/01 11:52:14;;;;;;;0.20;0.20;;;;;;;17.10;36.67;99898.28;5052571;28;20064;-79
2021/10/01 11:54:57;;;;;;;0.63;0.63;;;;;;;17.04;36.36;99895.97;5051243;28;20025;-79
2021/10/01 11:57:32;;;;;;;0.40;0.40;;;;;;;17.04;36.87;99904.88;5050009;28;20037;-79
2021/10/01 12:00:03;;;;;;;0.50;0.50;;;;;;;17.00;36.71;99890.34;5051189;28;20024;-79
2021/10/01 12:02:31;;;;;;;0.28;0.28;;;;;;;17.00;36.58;99887.66;5050944;28;20016;-79
2021/10/01 12:04:56;;;;;;;0.20;0.20;;;;;;;17.12;37.06;99881.75;5050950;28;20066;-79
2021/10/01 12:07:22;;;;;;;1.25;0.45;;;;;;;17.17;36.46;99876.25;5051739;28;20025;-79
2021/10/01 12:10:05;;;;;;;0.15;0.15;;;;;;;17.18;36.98;99885.19;5052241;28;20407;-79
2021/10/01 12:12:31;;;;;;;0.20;0.20;;;;;;;17.09;36.92;99904.00;5050732;28;20017;-79
2021/10/01 12:14:56;;;;;;;0.28;0.28;;;;;;;17.09;37.07;99893.97;5050759;28;20028;-79
2021/10/01 12:17:22;;;;;;;0.75;0.57;;;;;;;17.10;36.91;99876.66;5050599;28;20025;-79
2021/10/01 12:19:47;;;;;;;0.90;0.90;;;;;;;17.13;37.06;99875.25;5050455;28;20037;-79
2021/10/01 12:22:16;;;;;;;0.10;0.10;;;;;;;17.10;37.44;99865.03;5050644;28;20017;-79
2021/10/01 12:24:48;;;;;;;0.60;0.60;;;;;;;17.19;36.75;99865.16;5050538;28;20025;-79
2021/10/01 12:27:16;;;;;;;0.20;0.20;;;;;;;17.26;36.64;99869.06;5050255;28;20104;-79
2021/10/01 12:29:43;;;;;;;0.20;0.20;;;;;;;17.35;36.09;99877.25;5050353;28;20040;-79
2021/10/01 12:32:09;;;;;;;0.63;0.60;;;;;;;17.33;35.74;99881.38;5050142;28;20029;-79
2021/10/01 12:34:41;;;;;;;0.00;0.00;;;;;;;17.28;35.80;99874.97;5050281;28;20260;-79
2021/10/01 12:37:12;;;;;;;0.15;0.15;;;;;;;17.29;36.20;99884.66;5049957;28;20071;-79
2021/10/01 12:39:41;;;;;;;0.10;0.10;;;;;;;17.29;36.22;99876.56;5050292;28;20401;-79
2021/10/01 12:42:09;;;;;;;0.28;0.28;;;;;;;17.31;36.66;99862.75;5050265;28;20445;-79
2021/10/01 12:44:38;;;;;;;1.08;0.85;;;;;;;17.27;36.35;99867.16;5050433;28;20017;-79
2021/10/01 12:47:17;;;;;;;0.10;0.10;;;;;;;17.25;36.22;99858.56;5049891;28;20166;-79
2021/10/01 12:49:56;;;;;;;0.20;0.20;;;;;;;17.24;36.47;99852.34;5050072;28;20035;-79
2021/10/01 12:52:25;;;;;;;0.10;0.10;;;;;;;17.30;36.18;99850.34;5051126;28;20021;-80
2021/10/01 12:54:54;;;;;;;0.10;0.10;;;;;;;17.35;35.85;99855.63;5049892;28;20025;-79
2021/10/01 12:57:35;;;;;;;0.20;0.20;;;;;;;17.45;35.84;99849.22;5049774;28;20081;-79
2021/10/01 13:00:03;;;;;;;0.10;0.10;;;;;;;17.48;35.55;99845.09;5049987;28;20035;-79
2021/10/01 13:02:53;;;;;;;0.17;0.17;;;;;;;17.52;35.02;99833.38;5049846;28;20491;-79
2021/10/01 13:05:30;;;;;;;0.20;0.20;;;;;;;17.56;34.82;99847.91;5049718;28;20047;-79
2021/10/01 13:07:55;;;;;;;0.28;0.28;;;;;;;17.57;34.32;99868.44;5051283;28;20024;-79
2021/10/01 13:10:32;;;;;;;0.40;0.40;;;;;;;17.55;34.67;99843.63;5050601;28;20070;-79
2021/10/01 13:13:03;;;;;;;0.10;0.10;;;;;;;17.57;34.87;99848.72;5049812;28;20036;-79